createdAt,value
2023-02-09T00:01:48.157Z,39.03
2023-02-09T00:04:15.728Z,39.75
2023-02-09T00:06:43.437Z,38.65
2023-02-09T00:09:11.089Z,35.17
2023-02-09T00:11:57.176Z,38.60
2023-02-09T00:14:24.964Z,40.67
2023-02-09T00:16:54.265Z,38.97
2023-02-09T00:19:22.555Z,37.25
2023-02-09T00:21:50.441Z,36.63
2023-02-09T00:24:18.282Z,36.75
2023-02-09T00:26:46.362Z,37.08
2023-02-09T00:29:14.227Z,41.50
2023-02-09T00:31:43.080Z,39.42
2023-02-09T00:34:11.500Z,40.95
2023-02-09T00:36:39.264Z,38.00
2023-02-09T00:39:06.987Z,39.47
2023-02-09T00:41:53.002Z,42.50
2023-02-09T00:44:20.662Z,41.30
2023-02-09T00:46:49.204Z,38.97
2023-02-09T00:49:17.034Z,43.30
2023-02-09T00:51:44.833Z,40.08
2023-02-09T00:54:13.655Z,41.78
2023-02-09T00:56:41.316Z,38.70
2023-02-09T00:59:09.694Z,36.63
2023-02-09T01:01:37.982Z,41.15
2023-02-09T01:04:06.029Z,39.75
2023-02-09T01:06:34.057Z,41.47
2023-02-09T01:09:02.651Z,38.05
2023-02-09T01:11:30.556Z,35.80
2023-02-09T01:14:00.588Z,35.60
2023-02-09T01:16:30.316Z,40.17
2023-02-09T01:19:01.407Z,38.53
2023-02-09T01:21:31.500Z,35.08
2023-02-09T01:26:27.376Z,40.15
2023-02-09T01:28:55.489Z,34.28
2023-02-09T01:31:34.249Z,38.15
2023-02-09T01:36:33.382Z,34.47
2023-02-09T01:39:03.416Z,41.60
2023-02-09T01:41:33.112Z,41.38
2023-02-09T01:44:26.850Z,35.88
2023-02-09T01:46:54.431Z,39.65
2023-02-09T01:49:27.926Z,38.53
2023-02-09T01:52:13.327Z,34.55
2023-02-09T01:54:45.046Z,34.50
2023-02-09T01:57:25.268Z,32.20
2023-02-09T02:00:01.989Z,34.10
2023-02-09T02:05:00.109Z,31.38
2023-02-09T02:07:55.807Z,38.10
2023-02-09T02:10:25.444Z,30.98
2023-02-09T02:12:54.950Z,34.67
2023-02-09T02:15:30.522Z,33.03
2023-02-09T02:18:23.284Z,39.38
2023-02-09T02:21:23.626Z,37.90
2023-02-09T02:24:38.381Z,36.25
2023-02-09T02:27:28.285Z,36.15
2023-02-09T02:30:36.959Z,31.08
2023-02-09T02:36:34.127Z,28.33
2023-02-09T02:39:13.842Z,30.95
2023-02-09T02:42:13.361Z,33.22
2023-02-09T02:44:46.449Z,35.10
2023-02-09T02:47:19.395Z,33.90
2023-02-09T02:49:58.611Z,35.55
2023-02-09T02:52:26.252Z,29.13
2023-02-09T02:55:09.032Z,30.55
2023-02-09T02:57:40.780Z,31.33
2023-02-09T03:00:19.584Z,33.13
2023-02-09T03:02:53.521Z,32.42
2023-02-09T03:05:24.032Z,29.83
2023-02-09T03:07:52.366Z,29.30
2023-02-09T03:10:37.932Z,36.60
2023-02-09T03:13:08.507Z,30.35
2023-02-09T03:20:08.185Z,32.30
2023-02-09T03:22:56.271Z,31.65
2023-02-09T03:25:49.907Z,34.28
2023-02-09T03:28:30.638Z,36.83
2023-02-09T03:30:59.852Z,36.17
2023-02-09T03:33:32.072Z,35.28
2023-02-09T03:36:02.758Z,35.58
2023-02-09T03:38:30.577Z,32.35
2023-02-09T03:40:58.236Z,37.15
2023-02-09T03:43:45.797Z,36.95
2023-02-09T03:46:13.579Z,38.55
2023-02-09T03:48:41.170Z,35.20
2023-02-09T03:51:15.070Z,37.17
2023-02-09T03:53:43.025Z,33.97
2023-02-09T03:56:10.891Z,31.35
2023-02-09T03:58:38.720Z,31.37
2023-02-09T04:01:09.940Z,32.13
2023-02-09T04:03:39.792Z,34.60
2023-02-09T04:06:11.936Z,32.45
2023-02-09T04:08:39.602Z,30.33
2023-02-09T04:11:07.409Z,34.25
2023-02-09T04:13:35.402Z,33.97
2023-02-09T04:16:03.074Z,33.83
2023-02-09T04:18:30.739Z,38.22
2023-02-09T04:20:59.123Z,35.35
2023-02-09T04:23:27.097Z,36.92
2023-02-09T04:25:54.686Z,36.58
2023-02-09T04:28:22.285Z,34.85
2023-02-09T04:30:54.999Z,41.47
2023-02-09T04:33:24.582Z,40.75
2023-02-09T04:35:53.152Z,34.95
2023-02-09T04:38:22.598Z,39.42
2023-02-09T04:40:52.683Z,41.38
2023-02-09T04:43:21.000Z,29.98
2023-02-09T04:45:48.748Z,37.65
2023-02-09T04:48:20.098Z,36.83
2023-02-09T04:50:48.536Z,37.50
2023-02-09T04:53:17.065Z,41.55
2023-02-09T04:55:50.547Z,38.63
2023-02-09T04:58:39.364Z,37.67
2023-02-09T05:01:08.296Z,35.83
2023-02-09T05:06:05.811Z,34.63
2023-02-09T05:08:33.669Z,36.38
2023-02-09T05:11:01.958Z,35.78
2023-02-09T05:13:29.673Z,32.72
2023-02-09T05:15:57.507Z,34.67
2023-02-09T05:18:26.430Z,41.40
2023-02-09T05:23:21.869Z,38.13
2023-02-09T05:25:49.774Z,35.47
2023-02-09T05:28:17.550Z,41.83
2023-02-09T05:30:45.464Z,39.95
2023-02-09T05:33:13.323Z,40.47
2023-02-09T05:35:40.840Z,42.42
2023-02-09T05:38:08.392Z,40.97
2023-02-09T05:40:36.023Z,38.58
2023-02-09T05:43:03.658Z,44.28
2023-02-09T05:45:31.233Z,42.05
2023-02-09T05:47:59.077Z,38.20
2023-02-09T05:50:27.092Z,41.25
2023-02-09T05:52:59.321Z,52.08
2023-02-09T05:55:27.890Z,42.13
2023-02-09T05:57:55.485Z,45.25
2023-02-09T06:00:25.087Z,42.30
2023-02-09T06:02:52.726Z,48.22
2023-02-09T06:05:21.978Z,43.05
2023-02-09T06:07:50.317Z,43.90
2023-02-09T06:10:19.054Z,38.88
2023-02-09T06:12:46.740Z,42.15
2023-02-09T06:15:16.336Z,39.88
2023-02-09T06:17:47.611Z,37.78
2023-02-09T06:20:18.526Z,36.97
2023-02-09T06:22:46.075Z,40.53
2023-02-09T06:25:13.802Z,45.53
2023-02-09T06:27:41.507Z,38.72
2023-02-09T06:30:10.238Z,38.15
2023-02-09T06:32:37.887Z,47.35
2023-02-09T06:35:06.022Z,39.50
2023-02-09T06:37:33.755Z,42.78
2023-02-09T06:40:01.546Z,39.17
2023-02-09T06:42:43.736Z,41.67
2023-02-09T06:45:14.288Z,41.28
2023-02-09T06:47:44.642Z,47.15
2023-02-09T06:50:19.041Z,46.65
2023-02-09T06:52:47.799Z,39.55
2023-02-09T06:55:15.475Z,43.25
2023-02-09T06:57:43.049Z,39.88
2023-02-09T07:00:11.970Z,44.22
2023-02-09T07:05:11.266Z,43.95
2023-02-09T07:07:39.475Z,39.92
2023-02-09T07:10:11.283Z,43.60
2023-02-09T07:12:40.716Z,37.88
2023-02-09T07:15:10.097Z,39.15
2023-02-09T07:17:38.140Z,39.45
2023-02-09T07:20:07.261Z,42.30
2023-02-09T07:22:35.301Z,43.15
2023-02-09T07:25:08.257Z,46.10
2023-02-09T07:27:36.257Z,43.10
2023-02-09T07:30:04.424Z,45.83
2023-02-09T07:32:33.203Z,49.58
2023-02-09T07:35:01.100Z,53.13
2023-02-09T07:37:28.876Z,50.63
2023-02-09T07:39:56.792Z,47.87
2023-02-09T07:42:24.485Z,40.80
2023-02-09T07:44:58.705Z,42.42
2023-02-09T07:47:26.436Z,42.55
2023-02-09T07:49:54.029Z,46.35
2023-02-09T07:52:21.566Z,43.20
2023-02-09T07:54:51.749Z,42.78
2023-02-09T07:57:19.494Z,46.83
2023-02-09T07:59:47.082Z,46.10
2023-02-09T08:02:27.288Z,41.33
2023-02-09T08:05:00.467Z,42.20
2023-02-09T08:07:28.691Z,43.22
2023-02-09T08:09:56.285Z,47.90
2023-02-09T08:12:48.437Z,37.10
2023-02-09T08:15:18.818Z,45.20
2023-02-09T08:17:47.301Z,45.63
2023-02-09T08:20:19.524Z,39.38
2023-02-09T08:22:51.903Z,42.58
2023-02-09T08:25:22.900Z,43.55
2023-02-09T08:27:52.140Z,42.92
2023-02-09T08:30:20.439Z,50.13
2023-02-09T08:32:48.063Z,43.47
2023-02-09T08:35:15.997Z,46.10
2023-02-09T08:37:43.595Z,41.65
2023-02-09T08:40:12.465Z,42.50
2023-02-09T08:42:40.109Z,39.83
2023-02-09T08:45:08.375Z,46.90
2023-02-09T08:47:35.958Z,45.80
2023-02-09T08:50:03.823Z,47.45
2023-02-09T08:52:31.407Z,54.22
2023-02-09T08:54:58.973Z,55.45
2023-02-09T08:57:41.649Z,50.85
2023-02-09T09:00:10.446Z,49.85
2023-02-09T09:02:38.130Z,43.45
2023-02-09T09:05:06.427Z,43.80
2023-02-09T09:07:34.140Z,54.72
2023-02-09T09:10:01.737Z,45.80
2023-02-09T09:12:31.226Z,52.13
2023-02-09T09:14:58.773Z,50.75
2023-02-09T09:17:26.441Z,53.75
2023-02-09T09:19:56.214Z,51.33
2023-02-09T09:22:24.731Z,61.03
2023-02-09T09:24:55.057Z,51.90
2023-02-09T09:27:24.099Z,53.20
2023-02-09T09:29:52.506Z,51.35
2023-02-09T09:32:24.638Z,51.55
2023-02-09T09:34:58.787Z,58.15
2023-02-09T09:37:27.261Z,51.58
2023-02-09T09:39:54.978Z,50.45
2023-02-09T09:42:35.688Z,56.30
2023-02-09T09:45:07.768Z,54.80
2023-02-09T09:47:39.693Z,55.58
2023-02-09T09:50:33.662Z,51.67
2023-02-09T09:53:23.418Z,53.75
2023-02-09T09:55:59.277Z,53.95
2023-02-09T09:58:30.289Z,55.25
2023-02-09T10:00:57.939Z,52.72
2023-02-09T10:03:26.818Z,52.65
2023-02-09T10:06:00.600Z,52.53
2023-02-09T10:08:34.037Z,55.33
2023-02-09T10:11:15.899Z,57.92
2023-02-09T10:13:49.098Z,55.00
2023-02-09T10:16:38.332Z,51.40
2023-02-09T10:19:36.819Z,53.33
2023-02-09T10:22:04.664Z,53.67
2023-02-09T10:24:34.413Z,54.88
2023-02-09T10:27:28.787Z,54.42
2023-02-09T10:30:17.692Z,51.83
2023-02-09T10:32:45.879Z,51.72
2023-02-09T10:35:45.119Z,51.87
2023-02-09T10:38:22.275Z,57.10
2023-02-09T10:40:50.528Z,52.60
2023-02-09T10:43:30.291Z,59.70
2023-02-09T10:46:11.337Z,52.75
2023-02-09T10:48:46.147Z,58.00
2023-02-09T10:51:33.646Z,58.90
2023-02-09T10:54:20.316Z,55.00
2023-02-09T10:56:49.859Z,58.67
2023-02-09T10:59:24.164Z,54.42
2023-02-09T11:01:55.518Z,55.10
2023-02-09T11:04:27.552Z,53.05
2023-02-09T11:07:12.819Z,52.05
2023-02-09T11:09:49.877Z,53.17
2023-02-09T11:12:20.533Z,57.30
2023-02-09T11:14:48.915Z,52.70
2023-02-09T11:18:30.430Z,57.17
2023-02-09T11:21:34.056Z,57.55
2023-02-09T11:24:08.179Z,51.47
2023-02-09T11:27:06.632Z,52.70
2023-02-09T11:30:03.576Z,50.40
2023-02-09T11:32:51.862Z,58.35
2023-02-09T11:35:25.411Z,55.83
2023-02-09T11:38:13.613Z,49.42
2023-02-09T11:40:52.622Z,53.20
2023-02-09T11:46:02.855Z,48.50
2023-02-09T11:48:44.780Z,50.03
2023-02-09T11:51:25.115Z,49.45
2023-02-09T11:54:12.981Z,61.10
2023-02-09T11:56:49.592Z,51.00
2023-02-09T11:59:56.991Z,51.17
2023-02-09T12:03:07.359Z,55.58
2023-02-09T12:05:35.809Z,44.15
2023-02-09T12:08:30.877Z,48.17
2023-02-09T12:11:04.620Z,46.60
2023-02-09T12:14:12.153Z,49.10
2023-02-09T12:16:46.235Z,44.28
2023-02-09T12:19:37.360Z,47.17
2023-02-09T12:22:36.051Z,38.22
2023-02-09T12:25:12.959Z,49.90
2023-02-09T12:28:17.764Z,41.85
2023-02-09T12:30:45.635Z,47.40
2023-02-09T12:33:23.480Z,40.78
2023-02-09T12:36:09.171Z,40.05
2023-02-09T12:39:06.202Z,40.88
2023-02-09T12:41:35.019Z,37.45
2023-02-09T12:44:25.736Z,38.95
2023-02-09T12:46:57.815Z,41.22
2023-02-09T12:49:28.765Z,38.60
2023-02-09T12:52:02.391Z,37.85
2023-02-09T12:54:58.940Z,37.42
2023-02-09T12:57:26.594Z,37.92
2023-02-09T12:59:59.048Z,35.75
2023-02-09T13:02:35.929Z,36.50
2023-02-09T13:05:21.943Z,33.58
2023-02-09T13:08:24.481Z,33.00
2023-02-09T13:11:20.442Z,33.03
2023-02-09T13:14:07.517Z,36.00
2023-02-09T13:17:47.517Z,37.40
2023-02-09T13:20:33.901Z,34.97
2023-02-09T13:23:13.586Z,34.53
2023-02-09T13:25:43.614Z,32.35
2023-02-09T13:28:22.518Z,37.63
2023-02-09T13:30:50.629Z,32.97
2023-02-09T13:33:49.052Z,35.65
2023-02-09T13:36:49.041Z,33.22
2023-02-09T13:39:27.207Z,32.28
2023-02-09T13:41:55.417Z,33.83
2023-02-09T13:44:33.960Z,32.60
2023-02-09T13:47:07.515Z,32.35
2023-02-09T13:49:35.252Z,32.42
2023-02-09T13:52:22.138Z,37.63
2023-02-09T13:54:50.486Z,30.02
2023-02-09T13:57:31.050Z,30.00
2023-02-09T14:00:23.204Z,31.35
2023-02-09T14:03:01.743Z,30.17
2023-02-09T14:05:45.454Z,34.05
2023-02-09T14:08:16.410Z,29.45
2023-02-09T14:11:18.448Z,28.02
2023-02-09T14:14:13.165Z,31.05
2023-02-09T14:16:52.649Z,32.03
2023-02-09T14:19:30.599Z,34.30
2023-02-09T14:21:58.232Z,31.20
2023-02-09T14:24:41.632Z,34.20
2023-02-09T14:27:26.526Z,31.67
2023-02-09T14:29:54.876Z,34.50
2023-02-09T14:32:34.609Z,32.35
2023-02-09T14:35:23.526Z,32.40
2023-02-09T14:40:34.553Z,35.30
2023-02-09T14:43:06.871Z,33.67
2023-02-09T14:45:44.834Z,33.38
2023-02-09T14:48:29.663Z,36.00
2023-02-09T14:51:01.641Z,33.60
2023-02-09T14:53:32.001Z,33.30
2023-02-09T14:56:00.180Z,35.90
2023-02-09T14:58:30.755Z,33.60
2023-02-09T15:01:03.473Z,32.88
2023-02-09T15:03:31.177Z,32.80
2023-02-09T15:06:02.632Z,36.85
2023-02-09T15:08:35.445Z,36.85
2023-02-09T15:11:28.782Z,33.28
2023-02-09T15:14:03.988Z,37.53
2023-02-09T15:16:33.316Z,39.88
2023-02-09T15:19:03.847Z,35.78
2023-02-09T15:21:32.205Z,36.17
2023-02-09T15:23:59.914Z,36.55
2023-02-09T15:26:36.363Z,34.97
2023-02-09T15:29:12.550Z,37.40
2023-02-09T15:31:40.616Z,36.58
2023-02-09T15:34:11.183Z,35.40
2023-02-09T15:36:39.262Z,44.47
2023-02-09T15:39:20.276Z,47.80
2023-02-09T15:42:23.189Z,46.40
2023-02-09T15:45:09.484Z,40.15
2023-02-09T15:47:49.219Z,35.95
2023-02-09T15:50:20.551Z,37.97
2023-02-09T15:52:48.435Z,41.72
2023-02-09T15:55:20.396Z,42.92
2023-02-09T15:57:51.994Z,45.15
2023-02-09T16:00:24.858Z,39.45
2023-02-09T16:02:59.244Z,46.63
2023-02-09T16:05:30.703Z,44.15
2023-02-09T16:07:59.863Z,41.08
2023-02-09T16:10:29.789Z,42.85
2023-02-09T16:12:57.490Z,44.50
2023-02-09T16:15:27.341Z,41.75
2023-02-09T16:17:54.935Z,44.33
2023-02-09T16:20:28.896Z,40.80
2023-02-09T16:22:58.545Z,46.30
2023-02-09T16:25:30.360Z,44.45
2023-02-09T16:27:59.001Z,45.15
2023-02-09T16:30:34.874Z,46.58
2023-02-09T16:33:02.495Z,43.50
2023-02-09T16:35:31.254Z,46.95
2023-02-09T16:37:59.194Z,48.72
2023-02-09T16:40:32.607Z,51.28
2023-02-09T16:43:01.915Z,46.78
2023-02-09T16:45:35.059Z,45.13
2023-02-09T16:48:03.127Z,46.40
2023-02-09T16:50:35.701Z,52.58
2023-02-09T16:53:16.347Z,47.88
2023-02-09T16:55:48.114Z,48.90
2023-02-09T16:58:18.532Z,44.78
2023-02-09T17:00:46.333Z,48.15
2023-02-09T17:03:34.491Z,50.60
2023-02-09T17:06:02.517Z,48.20
2023-02-09T17:08:34.544Z,53.60
2023-02-09T17:11:04.425Z,46.83
2023-02-09T17:13:32.722Z,54.75
2023-02-09T17:16:08.975Z,51.25
2023-02-09T17:18:43.160Z,59.22
2023-02-09T17:21:19.515Z,52.67
2023-02-09T17:23:47.425Z,52.00
2023-02-09T17:26:15.605Z,50.78
2023-02-09T17:28:43.682Z,51.70
2023-02-09T17:31:23.087Z,50.20
2023-02-09T17:34:00.807Z,51.92
2023-02-09T17:36:29.926Z,54.00
2023-02-09T17:39:00.123Z,62.42
2023-02-09T17:41:36.919Z,59.17
2023-02-09T17:44:44.573Z,53.00
2023-02-09T17:47:19.752Z,57.15
2023-02-09T17:49:47.775Z,56.08
2023-02-09T17:52:20.409Z,66.05
2023-02-09T17:54:49.389Z,64.40
2023-02-09T17:57:18.169Z,54.97
2023-02-09T17:59:46.931Z,51.03
2023-02-09T18:02:17.748Z,55.22
2023-02-09T18:04:45.761Z,64.28
2023-02-09T18:07:20.421Z,57.20
2023-02-09T18:09:48.592Z,53.28
2023-02-09T18:12:27.264Z,61.13
2023-02-09T18:14:55.254Z,64.40
2023-02-09T18:17:22.975Z,55.78
2023-02-09T18:19:50.744Z,59.97
2023-02-09T18:22:19.937Z,57.58
2023-02-09T18:24:48.022Z,60.83
2023-02-09T18:27:19.409Z,60.03
2023-02-09T18:29:47.033Z,54.40
2023-02-09T18:32:17.356Z,60.78
2023-02-09T18:34:45.204Z,62.60
2023-02-09T18:37:16.082Z,59.42
2023-02-09T18:39:46.632Z,72.18
2023-02-09T18:42:16.239Z,71.03
2023-02-09T18:44:44.232Z,60.03
2023-02-09T18:47:12.391Z,56.60
2023-02-09T18:49:45.800Z,64.03
2023-02-09T18:52:20.765Z,63.75
2023-02-09T18:54:48.416Z,61.97
2023-02-09T18:57:15.973Z,58.95
2023-02-09T18:59:47.691Z,59.90
2023-02-09T19:02:16.034Z,62.58
2023-02-09T19:04:43.878Z,60.83
2023-02-09T19:07:12.387Z,54.00
2023-02-09T19:09:40.568Z,61.63
2023-02-09T19:12:08.331Z,58.77
2023-02-09T19:14:46.424Z,64.07
2023-02-09T19:17:17.723Z,65.03
2023-02-09T19:19:45.765Z,59.53
2023-02-09T19:22:17.684Z,60.08
2023-02-09T19:24:47.550Z,63.58
2023-02-09T19:27:17.241Z,54.92
2023-02-09T19:29:46.423Z,65.82
2023-02-09T19:32:15.280Z,68.07
2023-02-09T19:34:45.415Z,57.40
2023-02-09T19:37:14.192Z,58.85
2023-02-09T19:39:41.986Z,51.88
2023-02-09T19:42:10.064Z,62.22
2023-02-09T19:44:37.892Z,61.50
2023-02-09T19:47:05.593Z,65.18
2023-02-09T19:49:34.446Z,66.40
2023-02-09T19:52:02.469Z,70.78
2023-02-09T19:54:30.567Z,70.75
2023-02-09T19:56:59.728Z,66.90
2023-02-09T19:59:27.690Z,73.78
2023-02-09T20:01:55.616Z,71.47
2023-02-09T20:04:23.438Z,67.47
2023-02-09T20:06:51.150Z,68.30
2023-02-09T20:09:19.013Z,70.45
2023-02-09T20:11:46.775Z,70.72
2023-02-09T20:14:14.661Z,71.63
2023-02-09T20:16:42.342Z,66.97
2023-02-09T20:19:09.924Z,68.85
2023-02-09T20:21:37.828Z,68.00
2023-02-09T20:24:09.493Z,61.60
2023-02-09T20:26:37.264Z,64.03
2023-02-09T20:29:06.076Z,62.72
2023-02-09T20:31:36.962Z,70.28
2023-02-09T20:34:08.278Z,63.30
2023-02-09T20:36:39.449Z,65.93
2023-02-09T20:39:10.909Z,62.72
2023-02-09T20:41:38.849Z,64.82
2023-02-09T20:44:25.048Z,67.80
2023-02-09T20:46:55.354Z,67.82
2023-02-09T20:49:29.444Z,73.35
2023-02-09T20:51:57.832Z,79.90
2023-02-09T20:54:25.814Z,78.35
2023-02-09T20:56:53.642Z,79.17
2023-02-09T20:59:21.538Z,73.05
2023-02-09T21:01:49.249Z,66.55
2023-02-09T21:04:18.172Z,71.07
2023-02-09T21:06:45.964Z,70.63
2023-02-09T21:09:15.677Z,71.53
2023-02-09T21:11:43.701Z,72.55
2023-02-09T21:14:21.836Z,63.90
2023-02-09T21:16:56.348Z,70.68
2023-02-09T21:19:25.209Z,66.55
2023-02-09T21:21:53.170Z,65.65
2023-02-09T21:24:21.742Z,67.93
2023-02-09T21:26:49.314Z,73.60
2023-02-09T21:29:17.524Z,79.93
2023-02-09T21:31:45.820Z,76.50
2023-02-09T21:34:15.356Z,66.95
2023-02-09T21:36:43.876Z,75.30
2023-02-09T21:39:11.489Z,64.80
2023-02-09T21:41:57.586Z,66.97
2023-02-09T21:44:25.282Z,65.25
2023-02-09T21:46:54.079Z,75.85
2023-02-09T21:51:50.112Z,89.97
2023-02-09T21:54:21.932Z,90.72
2023-02-09T21:56:49.716Z,77.95
2023-02-09T21:59:18.226Z,76.50
2023-02-09T22:01:46.034Z,77.63
2023-02-09T22:04:13.827Z,77.78
2023-02-09T22:06:41.813Z,74.28
2023-02-09T22:09:09.659Z,81.22
2023-02-09T22:11:37.597Z,75.32
2023-02-09T22:14:05.469Z,70.10
2023-02-09T22:16:33.399Z,73.63
2023-02-09T22:19:00.966Z,71.45
2023-02-09T22:21:28.678Z,75.05
2023-02-09T22:23:56.626Z,70.15
2023-02-09T22:26:24.300Z,75.53
2023-02-09T22:28:51.978Z,67.57
2023-02-09T22:31:21.351Z,73.72
2023-02-09T22:33:59.682Z,69.88
2023-02-09T22:36:27.461Z,67.10
2023-02-09T22:38:55.036Z,62.80
2023-02-09T22:41:23.789Z,72.03
2023-02-09T22:44:05.052Z,62.60
2023-02-09T22:46:36.512Z,65.88
2023-02-09T22:49:16.328Z,75.72
2023-02-09T22:51:45.436Z,74.30
2023-02-09T22:54:15.954Z,75.20
2023-02-09T22:56:44.282Z,77.50
2023-02-09T22:59:18.138Z,76.18
2023-02-09T23:01:47.899Z,73.40
2023-02-09T23:04:15.691Z,71.90
2023-02-09T23:06:43.320Z,66.97
2023-02-09T23:09:14.002Z,63.58
2023-02-09T23:11:42.211Z,67.72
2023-02-09T23:14:11.556Z,66.68
2023-02-09T23:16:41.221Z,69.70
2023-02-09T23:19:13.278Z,69.97
2023-02-09T23:21:45.047Z,64.70
2023-02-09T23:24:16.251Z,69.18
2023-02-09T23:26:44.293Z,69.38
2023-02-09T23:29:15.451Z,66.45
2023-02-09T23:31:46.975Z,65.75
2023-02-09T23:34:19.260Z,68.78
2023-02-09T23:36:47.335Z,71.57
2023-02-09T23:39:19.799Z,71.00
2023-02-09T23:41:47.568Z,64.70
2023-02-09T23:44:15.205Z,79.20
2023-02-09T23:46:43.279Z,82.00
2023-02-09T23:49:11.901Z,74.40
2023-02-09T23:51:39.899Z,73.68
2023-02-09T23:54:07.880Z,72.10
2023-02-09T23:56:38.428Z,65.97
2023-02-09T23:59:09.884Z,73.07
